Time;durP1;ratioP1;P1;durP2;ratioP2;P2;SDS_P1;SDS_P2;PMS_P1;PMS_P2;Temp;Humidity;BMP_temperature;BMP_pressure;BME280_temperature;BME280_humidity;BME280_pressure;Samples;Min_cycle;Max_cycle;Signal;HPM_P1;HPM_P2
2022/11/10 00:01:44;;;;;;;9.93;3.08;;;20.60;46.00;;;;;;5030282;28;20196;-54
2022/11/10 00:04:15;;;;;;;9.60;2.67;;;20.70;46.70;;;;;;5030284;28;20203;-55
2022/11/10 00:06:48;;;;;;;7.05;2.75;;;20.60;46.00;;;;;;5029301;28;20234;-63
2022/11/10 00:09:18;;;;;;;8.38;2.55;;;20.60;46.00;;;;;;5009939;28;20217;-55
2022/11/10 00:11:52;;;;;;;9.43;3.10;;;20.60;46.00;;;;;;5029289;28;20193;-51
2022/11/10 00:17:11;;;;;;;10.35;3.10;;;20.70;46.10;;;;;;5029532;28;20297;-64
2022/11/10 00:19:42;;;;;;;9.68;2.60;;;20.60;46.00;;;;;;5038287;28;20207;-57
2022/11/10 00:22:12;;;;;;;9.30;2.97;;;20.60;46.00;;;;;;5030208;28;20200;-51
2022/11/10 00:24:43;;;;;;;7.70;2.33;;;20.60;46.00;;;;;;5028922;28;20196;-61
2022/11/10 00:27:16;;;;;;;8.55;2.83;;;20.60;45.90;;;;;;5030204;28;20302;-58
2022/11/10 00:29:47;;;;;;;8.45;2.40;;;20.70;45.90;;;;;;5029523;28;20215;-61
2022/11/10 00:32:18;;;;;;;11.18;3.05;;;20.70;45.90;;;;;;5029870;28;20204;-57
2022/11/10 00:34:51;;;;;;;8.30;2.35;;;20.70;45.90;;;;;;5029997;28;20207;-64
2022/11/10 00:37:22;;;;;;;7.20;2.03;;;20.70;46.00;;;;;;5030316;28;20250;-58
2022/11/10 00:39:53;;;;;;;5.88;2.25;;;20.70;45.90;;;;;;5029206;28;20220;-52
2022/11/10 00:42:25;;;;;;;5.68;2.40;;;20.70;46.00;;;;;;5029495;28;20200;-51
2022/11/10 00:44:56;;;;;;;8.43;2.38;;;20.70;45.90;;;;;;5030451;28;20200;-50
2022/11/10 00:47:27;;;;;;;8.68;2.70;;;20.70;45.90;;;;;;5030176;28;20200;-55
2022/11/10 00:49:57;;;;;;;8.98;2.58;;;20.70;45.90;;;;;;5030039;28;20227;-52
2022/11/10 00:52:28;;;;;;;7.32;2.63;;;20.70;45.90;;;;;;5029522;28;20207;-52
2022/11/10 00:54:59;;;;;;;6.45;2.33;;;20.70;46.00;;;;;;5029219;28;20222;-59
2022/11/10 00:57:31;;;;;;;7.88;2.67;;;20.70;45.90;;;;;;5032005;28;20224;-51
2022/11/10 01:00:02;;;;;;;10.90;2.97;;;20.70;45.90;;;;;;5029207;28;20212;-55
2022/11/10 01:02:33;;;;;;;8.52;2.65;;;20.80;45.90;;;;;;5029843;28;20243;-54
2022/11/10 01:05:04;;;;;;;7.97;2.42;;;20.80;45.90;;;;;;5029257;28;20214;-55
2022/11/10 01:07:36;;;;;;;6.55;2.50;;;20.70;45.90;;;;;;5029487;28;20219;-53
2022/11/10 01:10:07;;;;;;;8.18;2.40;;;20.80;45.90;;;;;;5029288;28;20216;-64
2022/11/10 01:12:40;;;;;;;8.15;2.88;;;20.80;45.90;;;;;;5034045;28;20656;-57
2022/11/10 01:15:12;;;;;;;8.02;2.30;;;20.80;46.00;;;;;;5032948;28;20547;-56
2022/11/10 01:17:42;;;;;;;6.15;2.35;;;20.80;45.90;;;;;;5032508;28;20224;-49
2022/11/10 01:20:14;;;;;;;7.63;2.45;;;20.80;45.90;;;;;;5044239;28;20221;-48
2022/11/10 01:22:44;;;;;;;5.95;2.28;;;20.80;45.90;;;;;;5032987;28;20200;-62
2022/11/10 01:25:15;;;;;;;5.03;2.47;;;20.80;45.90;;;;;;5015101;28;20714;-54
2022/11/10 01:27:48;;;;;;;7.45;2.78;;;20.90;46.00;;;;;;5032457;28;20275;-63
2022/11/10 01:30:19;;;;;;;7.55;2.20;;;20.90;46.00;;;;;;5032927;28;20213;-61
2022/11/10 01:32:49;;;;;;;9.38;2.67;;;20.90;46.60;;;;;;5032916;28;20207;-60
2022/11/10 01:35:23;;;;;;;8.20;2.50;;;20.90;46.00;;;;;;5033813;28;20196;-57
2022/11/10 01:37:55;;;;;;;8.18;2.42;;;20.90;46.00;;;;;;5032564;28;20228;-57
2022/11/10 01:40:25;;;;;;;8.82;2.78;;;20.90;46.00;;;;;;5032255;28;20220;-63
2022/11/10 01:42:59;;;;;;;5.78;2.25;;;21.00;46.00;;;;;;5032881;28;20207;-57
2022/11/10 01:45:47;;;;;;;6.10;2.45;;;21.00;46.00;;;;;;5033204;28;20195;-57
2022/11/10 01:48:25;;;;;;;6.88;2.53;;;21.00;46.00;;;;;;5033333;28;20196;-58
2022/11/10 01:50:56;;;;;;;6.88;2.10;;;21.00;46.00;;;;;;5033386;28;20223;-60
2022/11/10 01:53:30;;;;;;;6.75;2.70;;;21.00;45.90;;;;;;5048183;28;20588;-52
2022/11/10 01:56:01;;;;;;;6.32;2.28;;;21.00;46.00;;;;;;5045194;28;20196;-53
2022/11/10 01:58:39;;;;;;;6.88;2.20;;;21.00;46.00;;;;;;5031621;28;20495;-55
2022/11/10 02:01:10;;;;;;;5.88;2.53;;;21.00;46.00;;;;;;5032061;28;20632;-56
2022/11/10 02:03:46;;;;;;;5.05;1.98;;;21.10;46.00;;;;;;5032535;28;20211;-51
2022/11/10 02:06:24;;;;;;;4.63;2.13;;;21.10;46.00;;;;;;5031367;28;20188;-54
2022/11/10 02:08:55;;;;;;;9.05;2.47;;;21.10;46.10;;;;;;5031829;28;20200;-49
2022/11/10 02:11:26;;;;;;;5.57;2.25;;;21.10;46.10;;;;;;5031988;28;20192;-53
2022/11/10 02:14:00;;;;;;;7.82;2.08;;;21.20;46.10;;;;;;5032379;28;20196;-53
2022/11/10 02:16:31;;;;;;;6.60;2.08;;;21.20;46.10;;;;;;5031662;28;20227;-52
2022/11/10 02:19:15;;;;;;;6.82;2.55;;;21.20;46.00;;;;;;5036325;28;20211;-57
2022/11/10 02:21:49;;;;;;;5.93;1.83;;;21.20;46.00;;;;;;5039396;28;20206;-51
2022/11/10 02:24:21;;;;;;;6.38;1.88;;;21.20;46.00;;;;;;5032138;28;20192;-47
2022/11/10 02:26:56;;;;;;;5.47;2.10;;;21.20;46.00;;;;;;5031717;28;20208;-50
2022/11/10 02:29:27;;;;;;;5.35;2.05;;;21.20;46.00;;;;;;5031377;28;20581;-51
2022/11/10 02:31:58;;;;;;;4.72;2.15;;;21.30;46.00;;;;;;5032105;28;20200;-57
2022/11/10 02:34:28;;;;;;;8.23;2.42;;;21.20;46.00;;;;;;5032562;28;20200;-49
2022/11/10 02:37:01;;;;;;;5.25;1.88;;;21.30;46.00;;;;;;5031610;28;20231;-48
2022/11/10 02:39:32;;;;;;;4.15;1.92;;;21.30;46.00;;;;;;5031122;28;20246;-51
2022/11/10 02:42:02;;;;;;;5.97;1.95;;;21.30;45.90;;;;;;5031847;28;20199;-49
2022/11/10 02:44:33;;;;;;;6.28;2.10;;;21.30;46.00;;;;;;5031913;28;20580;-62
2022/11/10 02:47:04;;;;;;;8.98;2.35;;;21.30;45.90;;;;;;5031685;28;20192;-47
2022/11/10 02:49:35;;;;;;;6.20;2.33;;;21.30;45.90;;;;;;5031515;28;20235;-54
2022/11/10 02:52:08;;;;;;;7.30;2.40;;;21.40;45.90;;;;;;5031460;28;20199;-57
2022/11/10 02:54:39;;;;;;;5.32;2.20;;;21.40;45.80;;;;;;5030987;28;20192;-65
2022/11/10 02:57:09;;;;;;;10.45;2.70;;;21.30;45.80;;;;;;5031323;28;20580;-64
2022/11/10 02:59:40;;;;;;;4.60;2.15;;;21.30;45.60;;;;;;5030863;28;20222;-48
2022/11/10 03:02:11;;;;;;;6.25;2.47;;;21.30;45.60;;;;;;5031982;28;20563;-64
2022/11/10 03:04:41;;;;;;;7.18;2.30;;;21.30;45.50;;;;;;5034022;28;20777;-49
2022/11/10 03:07:14;;;;;;;7.65;2.38;;;21.30;45.50;;;;;;5031639;28;20196;-52
2022/11/10 03:09:45;;;;;;;6.35;1.98;;;21.30;45.50;;;;;;5031873;28;20232;-64
2022/11/10 03:12:15;;;;;;;7.40;2.67;;;21.40;45.50;;;;;;5031846;28;20234;-55
2022/11/10 03:14:46;;;;;;;7.25;2.40;;;21.40;45.50;;;;;;5030892;28;20668;-65
2022/11/10 03:17:17;;;;;;;5.35;2.20;;;21.30;46.10;;;;;;5031214;28;20234;-61
2022/11/10 03:19:50;;;;;;;5.60;2.25;;;21.30;45.50;;;;;;5031344;28;20212;-53
2022/11/10 03:22:22;;;;;;;7.22;2.63;;;21.40;45.50;;;;;;5031471;28;20192;-51
2022/11/10 03:24:53;;;;;;;7.07;2.33;;;21.40;45.50;;;;;;5030869;28;20200;-62
2022/11/10 03:27:24;;;;;;;8.38;2.55;;;21.40;45.40;;;;;;5030779;28;20196;-65
2022/11/10 03:29:54;;;;;;;7.68;2.42;;;21.40;45.30;;;;;;5030766;28;20243;-57
2022/11/10 03:32:25;;;;;;;6.95;2.45;;;21.30;45.30;;;;;;5031407;28;20613;-56
2022/11/10 03:34:56;;;;;;;7.85;2.72;;;21.40;45.30;;;;;;5030867;28;20199;-59
2022/11/10 03:37:29;;;;;;;9.35;2.40;;;21.30;45.20;;;;;;5030899;28;20254;-48
2022/11/10 03:40:00;;;;;;;6.70;2.38;;;21.30;45.10;;;;;;5030242;28;20220;-49
2022/11/10 03:42:30;;;;;;;6.43;2.42;;;21.30;45.40;;;;;;5030896;28;20200;-48
2022/11/10 03:45:01;;;;;;;7.15;2.40;;;21.30;45.60;;;;;;5031686;28;20679;-64
2022/11/10 03:47:32;;;;;;;5.93;1.98;;;21.30;45.70;;;;;;5031071;28;20200;-61
2022/11/10 03:50:02;;;;;;;5.47;2.03;;;21.40;45.80;;;;;;5031740;28;20270;-61
2022/11/10 03:52:35;;;;;;;7.93;2.45;;;21.40;45.80;;;;;;5027256;28;20682;-58
2022/11/10 03:55:06;;;;;;;7.13;2.40;;;21.40;45.80;;;;;;5049359;28;20191;-62
2022/11/10 03:57:37;;;;;;;7.22;2.58;;;21.40;45.70;;;;;;5034943;28;20220;-62
2022/11/10 04:00:10;;;;;;;7.72;2.35;;;21.40;45.60;;;;;;5030725;28;20225;-60
2022/11/10 04:02:41;;;;;;;5.70;2.47;;;21.40;45.60;;;;;;5030973;28;20655;-65
2022/11/10 04:10:52;;;;;;;9.13;2.95;;;21.40;45.60;;;;;;5030561;28;20270;-61
2022/11/10 04:16:10;;;;;;;9.57;2.42;;;21.50;45.60;;;;;;5030606;28;20596;-62
2022/11/10 04:18:41;;;;;;;8.50;2.25;;;21.50;45.60;;;;;;5015313;28;20232;-60
2022/11/10 04:21:11;;;;;;;6.97;2.45;;;21.50;46.20;;;;;;5047944;28;20207;-63
2022/11/10 04:23:44;;;;;;;6.47;2.58;;;21.50;45.60;;;;;;5034634;28;20317;-56
2022/11/10 04:26:32;;;;;;;7.28;2.30;;;21.50;45.60;;;;;;5048186;28;20647;-59
2022/11/10 04:29:04;;;;;;;7.40;2.20;;;21.50;45.60;;;;;;5029867;28;20227;-60
2022/11/10 04:31:38;;;;;;;6.90;2.53;;;21.50;45.60;;;;;;5030184;28;20663;-51
2022/11/10 04:34:10;;;;;;;6.78;2.45;;;21.50;45.60;;;;;;5030259;28;20602;-58
2022/11/10 04:36:42;;;;;;;5.50;2.33;;;21.50;45.60;;;;;;5030530;28;20216;-61
2022/11/10 04:39:15;;;;;;;5.38;2.58;;;21.50;45.60;;;;;;5029571;28;20588;-57
2022/11/10 04:41:46;;;;;;;6.55;2.10;;;21.50;45.60;;;;;;5030604;28;20246;-61
2022/11/10 04:44:16;;;;;;;5.38;2.40;;;21.50;45.60;;;;;;5029155;28;20207;-60
2022/11/10 04:46:50;;;;;;;5.95;2.17;;;21.50;45.70;;;;;;5032704;28;20203;-54
2022/11/10 04:49:21;;;;;;;6.28;2.08;;;21.50;45.70;;;;;;5034463;28;20235;-57
2022/11/10 04:51:51;;;;;;;6.30;2.55;;;21.50;45.60;;;;;;5034256;28;20192;-55
2022/11/10 04:54:24;;;;;;;5.97;2.22;;;21.50;45.60;;;;;;5033025;28;20227;-56
2022/11/10 04:56:55;;;;;;;6.50;2.50;;;21.50;45.70;;;;;;5033360;28;20196;-56
2022/11/10 04:59:25;;;;;;;4.13;1.90;;;21.50;45.60;;;;;;5048883;28;20215;-54
2022/11/10 05:01:56;;;;;;;5.93;2.47;;;21.50;45.60;;;;;;5048154;28;20222;-58
2022/11/10 05:04:27;;;;;;;4.60;2.03;;;21.50;45.60;;;;;;5033938;28;20208;-53
2022/11/10 05:06:58;;;;;;;5.88;2.20;;;21.50;46.20;;;;;;5032603;28;20188;-51
2022/11/10 05:09:31;;;;;;;7.00;1.95;;;21.50;45.50;;;;;;5033733;28;20227;-53
2022/11/10 05:12:02;;;;;;;6.57;2.35;;;21.50;45.50;;;;;;5033985;28;20203;-59
2022/11/10 05:14:33;;;;;;;8.10;2.17;;;21.50;45.50;;;;;;5035647;28;20200;-50
2022/11/10 05:17:04;;;;;;;5.78;2.28;;;21.50;45.50;;;;;;5034338;28;20198;-56
2022/11/10 05:19:35;;;;;;;4.85;2.22;;;21.50;45.40;;;;;;5033245;28;20231;-51
2022/11/10 05:22:06;;;;;;;5.63;2.03;;;21.50;45.40;;;;;;5032366;28;20192;-51
2022/11/10 05:24:39;;;;;;;5.53;1.90;;;21.50;45.50;;;;;;5033273;28;20204;-54
2022/11/10 05:27:10;;;;;;;6.05;2.15;;;21.50;45.40;;;;;;5038032;28;20642;-54
2022/11/10 05:29:41;;;;;;;5.03;1.75;;;21.50;45.50;;;;;;5053413;28;20222;-55
2022/11/10 05:32:11;;;;;;;4.70;2.08;;;21.50;45.50;;;;;;5046559;28;20215;-50
2022/11/10 05:34:42;;;;;;;5.45;2.25;;;21.50;45.50;;;;;;5033832;28;20204;-51
2022/11/10 05:37:13;;;;;;;6.90;2.20;;;21.40;45.50;;;;;;5033377;28;20288;-52
2022/11/10 05:39:45;;;;;;;5.43;2.00;;;21.50;45.50;;;;;;5032793;28;20267;-49
2022/11/10 05:42:16;;;;;;;5.15;2.00;;;21.40;45.40;;;;;;5032989;28;20552;-53
2022/11/10 05:44:47;;;;;;;3.33;1.80;;;21.40;45.40;;;;;;5032899;28;20197;-57
2022/11/10 05:47:20;;;;;;;5.30;2.08;;;21.40;45.30;;;;;;5032572;28;20188;-50
2022/11/10 05:49:51;;;;;;;8.30;2.40;;;21.40;45.30;;;;;;5033180;28;20700;-60
2022/11/10 05:52:22;;;;;;;6.13;1.95;;;21.40;45.30;;;;;;5032606;28;20249;-52
2022/11/10 05:54:56;;;;;;;4.25;1.95;;;21.40;45.30;;;;;;5032843;28;20192;-48
2022/11/10 05:57:26;;;;;;;4.35;1.73;;;21.40;45.30;;;;;;5021370;28;20692;-48
2022/11/10 05:59:57;;;;;;;6.28;1.98;;;21.40;45.40;;;;;;5012738;28;20224;-50
2022/11/10 06:02:28;;;;;;;5.13;2.08;;;21.40;45.40;;;;;;5019706;28;20275;-48
2022/11/10 06:04:59;;;;;;;6.57;2.20;;;21.40;45.40;;;;;;5032593;28;20627;-49
2022/11/10 06:07:29;;;;;;;5.65;1.90;;;21.40;45.40;;;;;;5032447;28;20192;-57
2022/11/10 06:10:02;;;;;;;6.95;2.13;;;21.40;45.40;;;;;;5032149;28;20208;-59
2022/11/10 06:12:33;;;;;;;6.25;2.05;;;21.40;45.40;;;;;;5031553;28;20196;-51
2022/11/10 06:15:04;;;;;;;5.43;2.08;;;21.30;45.30;;;;;;5032616;28;20203;-61
2022/11/10 06:17:35;;;;;;;6.55;2.15;;;21.30;45.30;;;;;;5031329;28;20212;-59
2022/11/10 06:20:06;;;;;;;5.15;2.00;;;21.30;45.20;;;;;;5032040;28;20220;-58
2022/11/10 06:22:37;;;;;;;5.18;2.10;;;21.30;45.30;;;;;;5031735;28;20199;-59
2022/11/10 06:25:10;;;;;;;5.60;2.35;;;21.30;45.20;;;;;;5031081;28;20592;-55
2022/11/10 06:27:45;;;;;;;7.57;3.22;;;21.30;45.20;;;;;;5031699;28;20683;-62
2022/11/10 06:30:17;;;;;;;6.30;3.00;;;21.30;45.20;;;;;;5032197;28;20247;-57
2022/11/10 06:32:47;;;;;;;8.13;3.58;;;21.30;45.10;;;;;;5031944;28;20196;-57
2022/11/10 06:35:21;;;;;;;7.15;3.58;;;21.30;45.20;;;;;;5032162;28;20215;-54
2022/11/10 06:38:01;;;;;;;5.78;3.20;;;21.30;45.20;;;;;;5031687;28;20238;-56
2022/11/10 06:40:34;;;;;;;5.53;2.95;;;21.30;45.30;;;;;;5031814;28;20212;-56
2022/11/10 06:43:05;;;;;;;5.03;3.33;;;21.30;45.20;;;;;;5031560;28;20199;-56
2022/11/10 06:45:36;;;;;;;5.57;3.00;;;21.30;45.20;;;;;;5031958;28;20196;-59
2022/11/10 06:48:09;;;;;;;6.20;3.25;;;21.20;45.10;;;;;;5031849;28;20192;-53
2022/11/10 06:50:39;;;;;;;5.80;3.13;;;21.20;45.10;;;;;;5031765;28;20220;-58
2022/11/10 06:53:12;;;;;;;5.55;3.45;;;21.20;45.10;;;;;;5031312;28;20679;-56
2022/11/10 06:55:45;;;;;;;6.15;3.22;;;21.20;45.10;;;;;;5031071;28;20202;-59
2022/11/10 06:58:15;;;;;;;7.55;4.00;;;21.20;45.10;;;;;;5031048;28;20231;-50
2022/11/10 07:00:47;;;;;;;7.78;5.05;;;21.20;45.20;;;;;;5032449;28;20226;-58
2022/11/10 07:03:18;;;;;;;7.60;4.82;;;21.20;45.10;;;;;;5036517;28;20691;-49
2022/11/10 07:05:49;;;;;;;7.57;4.90;;;21.20;45.20;;;;;;5031654;28;20200;-52
2022/11/10 07:08:23;;;;;;;6.18;4.40;;;21.10;45.10;;;;;;5029800;28;20204;-53
2022/11/10 07:10:57;;;;;;;7.00;4.60;;;21.10;45.20;;;;;;5030166;28;20216;-55
2022/11/10 07:13:27;;;;;;;7.95;5.30;;;21.10;45.30;;;;;;5031276;28;20188;-63
2022/11/10 07:15:58;;;;;;;8.05;4.90;;;21.10;45.30;;;;;;5031872;28;20207;-56
2022/11/10 07:18:29;;;;;;;8.13;4.97;;;21.10;45.30;;;;;;5031227;28;20219;-54
2022/11/10 07:20:59;;;;;;;7.55;5.10;;;21.10;45.30;;;;;;5030654;28;20216;-54
2022/11/10 07:23:30;;;;;;;7.45;4.75;;;21.00;45.20;;;;;;5031196;28;20200;-51
2022/11/10 07:26:04;;;;;;;6.63;4.55;;;21.00;45.20;;;;;;5031091;28;20199;-53
2022/11/10 07:28:35;;;;;;;6.85;4.50;;;21.00;45.20;;;;;;5031498;28;20195;-58
2022/11/10 07:31:06;;;;;;;7.68;5.35;;;21.00;45.20;;;;;;5030436;28;20243;-62
2022/11/10 07:33:37;;;;;;;6.22;4.03;;;21.00;45.20;;;;;;5031490;28;20224;-56
2022/11/10 07:36:08;;;;;;;6.10;4.40;;;20.90;45.20;;;;;;5030116;28;20195;-55
2022/11/10 07:38:39;;;;;;;6.32;4.45;;;20.90;45.20;;;;;;5030829;28;20232;-61
2022/11/10 07:41:12;;;;;;;5.70;4.05;;;20.90;45.30;;;;;;5030695;28;20493;-55
2022/11/10 07:43:43;;;;;;;6.78;4.80;;;20.90;45.30;;;;;;5030558;28;20189;-58
2022/11/10 07:46:14;;;;;;;6.55;4.65;;;20.90;45.30;;;;;;5031184;28;20651;-56
2022/11/10 07:48:47;;;;;;;8.32;4.30;;;20.80;45.30;;;;;;5031359;28;20192;-51
2022/11/10 07:51:18;;;;;;;6.18;4.00;;;20.80;45.30;;;;;;5029895;28;20266;-54
2022/11/10 07:53:52;;;;;;;7.38;5.03;;;20.80;45.30;;;;;;5030790;28;20192;-63
2022/11/10 07:56:24;;;;;;;6.55;4.40;;;20.80;45.30;;;;;;5030483;28;20566;-56
2022/11/10 07:58:55;;;;;;;6.90;4.68;;;20.80;45.40;;;;;;5029779;28;20226;-57
2022/11/10 08:01:26;;;;;;;6.35;4.10;;;20.80;45.30;;;;;;5031074;28;20669;-57
2022/11/10 08:03:57;;;;;;;5.82;4.20;;;20.70;45.30;;;;;;5029693;28;20195;-60
2022/11/10 08:06:27;;;;;;;6.63;4.60;;;20.70;45.40;;;;;;5030394;28;20203;-56
2022/11/10 08:08:58;;;;;;;5.60;3.90;;;20.70;45.40;;;;;;5029438;28;20196;-64
2022/11/10 08:11:31;;;;;;;6.28;3.90;;;20.70;45.50;;;;;;5030148;28;20193;-61
2022/11/10 08:14:02;;;;;;;5.88;4.13;;;20.60;45.40;;;;;;5030588;28;20202;-64
2022/11/10 08:16:33;;;;;;;4.80;3.85;;;20.60;45.50;;;;;;5029933;28;20200;-62
2022/11/10 08:19:03;;;;;;;6.82;3.80;;;20.50;45.50;;;;;;5030438;28;20219;-65
2022/11/10 08:21:34;;;;;;;5.53;3.83;;;20.60;45.60;;;;;;5033457;28;20675;-62
2022/11/10 08:24:05;;;;;;;7.07;3.95;;;20.50;45.60;;;;;;5033862;28;20206;-63
2022/11/10 08:26:38;;;;;;;5.07;3.85;;;20.50;45.60;;;;;;5033117;28;20196;-58
2022/11/10 08:29:09;;;;;;;4.82;3.88;;;20.50;45.60;;;;;;5034566;28;20227;-54
2022/11/10 08:31:39;;;;;;;6.38;3.88;;;20.50;45.50;;;;;;5034538;28;20200;-54
2022/11/10 08:34:10;;;;;;;6.65;4.15;;;20.50;45.60;;;;;;5034256;28;20238;-59
2022/11/10 08:36:41;;;;;;;6.88;4.10;;;20.50;45.60;;;;;;5034038;28;20199;-60
2022/11/10 08:39:12;;;;;;;7.25;4.03;;;20.40;45.60;;;;;;5034041;28;20236;-58
2022/11/10 08:41:44;;;;;;;4.95;3.67;;;20.40;45.60;;;;;;5034531;28;20199;-61
2022/11/10 08:44:15;;;;;;;6.72;4.03;;;20.40;46.20;;;;;;5034227;28;20207;-57
2022/11/10 08:46:46;;;;;;;5.53;3.60;;;20.30;45.60;;;;;;5034404;28;20678;-59
2022/11/10 08:49:16;;;;;;;5.05;3.78;;;20.30;45.60;;;;;;5034626;28;20224;-59
2022/11/10 08:51:47;;;;;;;6.25;3.80;;;20.30;45.70;;;;;;5034421;28;20206;-60
2022/11/10 08:54:18;;;;;;;5.70;3.80;;;20.30;45.70;;;;;;5034717;28;20204;-51
2022/11/10 08:56:50;;;;;;;5.45;3.78;;;20.20;45.70;;;;;;5034655;28;20207;-60
2022/11/10 08:59:21;;;;;;;4.70;3.65;;;20.20;45.70;;;;;;5034055;28;20228;-60
2022/11/10 09:01:52;;;;;;;7.00;3.85;;;20.20;45.70;;;;;;5033563;28;20196;-53
2022/11/10 09:04:22;;;;;;;6.95;3.83;;;20.20;45.70;;;;;;5033877;28;20199;-60
2022/11/10 09:06:56;;;;;;;5.43;3.78;;;20.20;45.80;;;;;;5034064;28;20230;-56
2022/11/10 09:09:27;;;;;;;5.07;3.60;;;20.20;45.80;;;;;;5052249;28;20211;-55
2022/11/10 09:12:00;;;;;;;5.45;3.67;;;20.10;45.80;;;;;;5054628;28;20214;-58
2022/11/10 09:14:31;;;;;;;5.97;3.88;;;20.10;45.80;;;;;;5037133;28;20192;-51
2022/11/10 09:17:01;;;;;;;4.63;3.53;;;20.10;45.80;;;;;;5033553;28;20574;-51
2022/11/10 09:19:32;;;;;;;4.65;3.42;;;20.10;45.90;;;;;;5033107;28;20629;-54
2022/11/10 09:22:03;;;;;;;6.20;3.22;;;20.00;45.90;;;;;;5033380;28;20199;-51
2022/11/10 09:24:34;;;;;;;4.97;3.50;;;20.00;45.90;;;;;;5033617;28;20200;-56
2022/11/10 09:27:06;;;;;;;5.55;3.75;;;20.00;46.00;;;;;;5033361;28;20203;-52
2022/11/10 09:29:37;;;;;;;4.47;3.45;;;20.00;46.00;;;;;;5033433;28;20220;-56
2022/11/10 09:32:08;;;;;;;5.53;3.88;;;19.90;46.00;;;;;;5033176;28;20655;-51
2022/11/10 09:34:39;;;;;;;4.97;3.10;;;19.90;46.00;;;;;;5033882;28;20203;-55
2022/11/10 09:37:09;;;;;;;5.38;3.83;;;19.90;46.00;;;;;;5033462;28;20550;-47
2022/11/10 09:39:40;;;;;;;6.03;3.95;;;19.90;46.00;;;;;;5033004;28;20234;-53
2022/11/10 09:42:32;;;;;;;4.93;3.70;;;19.90;46.10;;;;;;5028604;28;20563;-58
2022/11/10 09:45:07;;;;;;;4.88;3.20;;;19.90;46.10;;;;;;5038666;28;20199;-56
2022/11/10 09:47:44;;;;;;;6.43;3.60;;;19.90;46.10;;;;;;5047668;28;20196;-53
2022/11/10 09:50:23;;;;;;;6.00;3.53;;;19.80;46.10;;;;;;5033999;28;20250;-56
2022/11/10 09:52:55;;;;;;;7.00;3.80;;;19.80;46.00;;;;;;5032685;28;20207;-60
2022/11/10 09:55:35;;;;;;;5.35;3.70;;;19.80;46.10;;;;;;5031965;28;20192;-58
2022/11/10 09:58:10;;;;;;;5.07;3.60;;;19.80;46.10;;;;;;5031760;28;20206;-56
2022/11/10 10:00:42;;;;;;;5.55;4.20;;;19.70;46.10;;;;;;5031915;28;20232;-55
2022/11/10 10:03:23;;;;;;;5.75;3.53;;;19.70;46.10;;;;;;5030266;28;20203;-51
2022/11/10 10:06:08;;;;;;;6.13;3.80;;;19.70;46.10;;;;;;5032164;28;20242;-49
2022/11/10 10:08:51;;;;;;;3.35;3.03;;;19.70;46.20;;;;;;5032245;28;20204;-50
2022/11/10 10:11:40;;;;;;;5.88;3.50;;;19.70;46.20;;;;;;5031726;28;20211;-51
2022/11/10 10:14:49;;;;;;;6.70;3.38;;;19.60;46.10;;;;;;5032459;28;20196;-52
2022/11/10 10:17:25;;;;;;;5.28;3.50;;;19.60;46.10;;;;;;5032565;28;20204;-57
2022/11/10 10:20:03;;;;;;;7.10;3.50;;;19.60;46.10;;;;;;5031601;28;20232;-60
2022/11/10 10:22:57;;;;;;;3.97;3.10;;;19.60;46.10;;;;;;5032023;28;20679;-55
2022/11/10 10:25:30;;;;;;;7.85;3.40;;;19.60;46.10;;;;;;5031267;28;20204;-58
2022/11/10 10:28:06;;;;;;;4.70;3.00;;;19.60;46.10;;;;;;5032038;28;20188;-58
2022/11/10 10:30:39;;;;;;;6.18;3.63;;;19.60;46.10;;;;;;5031806;28;20223;-56
2022/11/10 10:33:19;;;;;;;5.85;3.65;;;19.50;46.10;;;;;;5031670;28;20200;-54
2022/11/10 10:35:52;;;;;;;6.13;3.03;;;19.50;46.10;;;;;;5031969;28;20451;-59
2022/11/10 10:38:27;;;;;;;5.57;3.70;;;19.50;46.20;;;;;;5030730;28;20212;-54
2022/11/10 10:41:03;;;;;;;6.78;3.13;;;19.50;46.20;;;;;;5032760;28;20223;-52
2022/11/10 10:43:34;;;;;;;5.18;3.33;;;19.40;46.20;;;;;;5032020;28;20663;-53
2022/11/10 10:46:14;;;;;;;5.50;2.90;;;19.40;46.20;;;;;;5031739;28;20215;-54
2022/11/10 10:48:48;;;;;;;5.28;3.08;;;19.40;46.20;;;;;;5031909;28;20234;-57
2022/11/10 10:51:32;;;;;;;4.53;3.10;;;19.40;46.10;;;;;;5032319;28;20200;-57
2022/11/10 10:54:02;;;;;;;4.45;2.75;;;19.40;46.10;;;;;;5031106;28;20192;-49
2022/11/10 10:56:35;;;;;;;5.75;3.00;;;19.40;46.10;;;;;;5031027;28;20200;-54
2022/11/10 10:59:18;;;;;;;5.38;3.03;;;19.40;46.10;;;;;;5031437;28;20228;-53
2022/11/10 11:01:55;;;;;;;4.63;3.08;;;19.40;46.10;;;;;;5032891;28;20196;-51
2022/11/10 11:04:31;;;;;;;5.50;3.17;;;19.40;46.10;;;;;;5030528;28;20530;-48
2022/11/10 11:07:03;;;;;;;4.75;2.83;;;19.30;46.10;;;;;;5031497;28;20204;-54
2022/11/10 11:09:43;;;;;;;5.38;3.05;;;19.30;46.40;;;;;;5031477;28;20220;-54
2022/11/10 11:12:26;;;;;;;5.22;2.90;;;19.30;46.50;;;;;;5031166;28;20195;-55
2022/11/10 11:15:20;;;;;;;4.05;2.50;;;19.30;46.50;;;;;;5031684;28;20200;-53
2022/11/10 11:18:00;;;;;;;4.18;2.70;;;19.30;46.50;;;;;;5031575;28;20196;-51
2022/11/10 11:20:39;;;;;;;5.60;3.03;;;19.20;46.40;;;;;;5031583;28;20232;-50
2022/11/10 11:23:24;;;;;;;4.13;2.50;;;19.20;46.40;;;;;;5031811;28;20206;-52
2022/11/10 11:26:02;;;;;;;5.10;2.97;;;19.20;46.40;;;;;;5031262;28;20204;-50
2022/11/10 11:28:42;;;;;;;4.47;2.65;;;19.20;46.40;;;;;;5031244;28;20196;-52
2022/11/10 11:31:20;;;;;;;4.82;2.65;;;19.20;46.40;;;;;;5031182;28;20203;-51
2022/11/10 11:34:00;;;;;;;4.40;2.75;;;19.20;46.40;;;;;;5031334;28;20192;-52
2022/11/10 11:36:43;;;;;;;4.85;2.88;;;19.20;46.40;;;;;;5031794;28;20196;-52
2022/11/10 11:39:37;;;;;;;4.63;2.88;;;19.20;46.40;;;;;;5031956;28;20239;-58
2022/11/10 11:42:18;;;;;;;4.40;2.50;;;19.10;46.30;;;;;;5031710;28;20196;-62
2022/11/10 11:45:01;;;;;;;5.05;2.90;;;19.10;46.30;;;;;;5031775;28;20332;-50
2022/11/10 11:47:43;;;;;;;5.45;2.80;;;19.10;46.30;;;;;;5031730;28;20189;-51
2022/11/10 11:50:28;;;;;;;4.78;2.67;;;19.10;46.30;;;;;;5031545;28;20224;-59
2022/11/10 11:53:06;;;;;;;5.72;2.50;;;19.10;46.30;;;;;;5031115;28;20200;-52
2022/11/10 11:56:06;;;;;;;4.18;2.70;;;19.10;46.30;;;;;;5030845;28;20200;-57
2022/11/10 11:58:48;;;;;;;4.50;2.97;;;19.00;46.30;;;;;;5031550;28;20196;-53
2022/11/10 12:01:42;;;;;;;4.70;3.00;;;19.00;46.20;;;;;;5031344;28;20765;-50
2022/11/10 12:04:48;;;;;;;4.18;2.70;;;19.00;46.30;;;;;;5031478;28;20200;-55
2022/11/10 12:07:32;;;;;;;4.32;2.47;;;19.00;46.30;;;;;;5030982;28;20207;-52
2022/11/10 12:10:17;;;;;;;6.25;2.40;;;18.90;46.20;;;;;;5030423;28;20228;-52
2022/11/10 12:13:01;;;;;;;4.03;2.50;;;18.90;46.30;;;;;;5031114;28;20206;-50
2022/11/10 12:15:41;;;;;;;5.72;2.80;;;18.90;46.20;;;;;;5031366;28;20282;-50
2022/11/10 12:18:21;;;;;;;5.07;2.47;;;18.90;46.20;;;;;;5030910;28;20200;-57
2022/11/10 12:21:00;;;;;;;6.40;2.72;;;18.90;46.20;;;;;;5030812;28;20228;-52
2022/11/10 12:23:42;;;;;;;4.60;2.88;;;18.90;46.20;;;;;;5030896;28;20198;-56
2022/11/10 12:26:23;;;;;;;4.43;2.63;;;18.80;46.20;;;;;;5030756;28;20196;-60
2022/11/10 12:29:00;;;;;;;5.78;2.88;;;18.80;46.20;;;;;;5030741;28;20207;-53
2022/11/10 12:31:37;;;;;;;3.70;2.50;;;18.80;46.20;;;;;;5031183;28;20722;-51
2022/11/10 12:34:15;;;;;;;5.85;3.20;;;18.80;46.20;;;;;;5030710;28;20566;-57
2022/11/10 12:36:47;;;;;;;4.57;2.45;;;18.70;46.10;;;;;;5030332;28;20192;-49
2022/11/10 12:39:24;;;;;;;4.00;2.67;;;18.70;46.20;;;;;;5030466;28;20223;-59
2022/11/10 12:41:59;;;;;;;3.33;2.28;;;18.70;46.20;;;;;;5030736;28;20203;-58
2022/11/10 12:44:36;;;;;;;5.43;2.65;;;18.70;46.20;;;;;;5031087;28;20203;-58
2022/11/10 12:47:11;;;;;;;4.85;2.72;;;18.70;46.20;;;;;;5030838;28;20196;-58
2022/11/10 12:49:49;;;;;;;3.97;2.30;;;18.70;46.20;;;;;;5031224;28;20238;-52
2022/11/10 12:52:25;;;;;;;3.40;2.28;;;18.60;46.20;;;;;;5030973;28;20254;-57
2022/11/10 12:54:57;;;;;;;4.80;2.72;;;18.60;46.10;;;;;;5030733;28;20207;-57
2022/11/10 12:57:30;;;;;;;4.85;2.20;;;18.70;46.20;;;;;;5030533;28;20572;-57
2022/11/10 13:00:04;;;;;;;3.88;2.35;;;18.60;46.10;;;;;;5030698;28;20224;-60
2022/11/10 13:02:40;;;;;;;4.65;2.38;;;18.60;46.10;;;;;;5030899;28;20202;-54
2022/11/10 13:05:31;;;;;;;5.43;2.60;;;18.60;46.20;;;;;;5033064;28;20576;-58
2022/11/10 13:08:27;;;;;;;4.68;2.05;;;18.50;46.10;;;;;;5033052;28;20196;-52
2022/11/10 13:11:05;;;;;;;4.47;2.40;;;18.50;46.10;;;;;;5033294;28;20242;-54
2022/11/10 13:13:46;;;;;;;4.07;2.20;;;18.50;46.10;;;;;;5033770;28;20668;-52
2022/11/10 13:16:52;;;;;;;4.22;2.30;;;18.50;46.20;;;;;;5034193;28;20203;-51
2022/11/10 13:19:56;;;;;;;4.50;2.42;;;18.50;46.30;;;;;;5033977;28;20266;-59
2022/11/10 13:22:36;;;;;;;3.53;2.10;;;18.40;46.10;;;;;;4972726;28;20216;-55
2022/11/10 13:25:54;;;;;;;3.35;2.10;;;18.40;46.10;;;;;;4972694;28;20708;-54
2022/11/10 13:29:07;;;;;;;4.80;2.30;;;18.40;46.10;;;;;;4966790;28;20198;-54
2022/11/10 13:31:56;;;;;;;3.85;2.10;;;18.40;46.10;;;;;;4987753;28;20204;-54
2022/11/10 13:34:35;;;;;;;4.68;2.38;;;18.40;46.10;;;;;;5033851;28;20200;-54